createdAt,value
2022-10-03T00:00:09.206Z,83.36
2022-10-03T00:05:30.375Z,82.73
2022-10-03T00:10:35.839Z,83.54
2022-10-03T00:15:36.294Z,83.43
2022-10-03T00:20:40.267Z,84.11
2022-10-03T00:25:40.772Z,83.64
2022-10-03T00:30:54.046Z,84.13
2022-10-03T00:36:19.488Z,83.71
2022-10-03T00:41:21.797Z,83.69
2022-10-03T00:46:51.867Z,84.02
2022-10-03T00:51:52.205Z,85.33
2022-10-03T00:57:09.133Z,85.27
2022-10-03T01:02:25.331Z,85.35
2022-10-03T01:07:44.461Z,84.45
2022-10-03T01:12:58.098Z,85.10
2022-10-03T01:18:01.834Z,85.03
2022-10-03T01:22:59.003Z,84.48
2022-10-03T01:28:39.753Z,85.18
2022-10-03T01:33:38.033Z,85.50
2022-10-03T01:38:48.293Z,84.83
2022-10-03T01:43:50.448Z,85.36
2022-10-03T01:49:00.709Z,85.33
2022-10-03T01:54:01.396Z,85.00
2022-10-03T01:59:08.719Z,85.74
2022-10-03T02:04:23.122Z,86.08
2022-10-03T02:09:25.361Z,85.79
2022-10-03T02:14:48.608Z,85.83
2022-10-03T02:19:52.260Z,85.91
2022-10-03T02:24:56.146Z,85.69
2022-10-03T02:30:12.656Z,85.27
2022-10-03T02:35:22.125Z,85.18
2022-10-03T02:40:26.297Z,85.43
2022-10-03T02:45:20.736Z,85.35
2022-10-03T02:50:21.441Z,86.15
2022-10-03T02:55:36.570Z,85.88
2022-10-03T03:01:19.525Z,85.96
2022-10-03T03:06:35.958Z,86.54
2022-10-03T03:12:16.616Z,86.52
2022-10-03T03:17:17.331Z,87.32
2022-10-03T03:22:35.413Z,88.46
2022-10-03T03:27:43.333Z,87.80
2022-10-03T03:32:46.066Z,87.71
2022-10-03T03:37:55.534Z,88.25
2022-10-03T03:43:00.367Z,88.33
2022-10-03T03:48:15.476Z,88.78
2022-10-03T03:53:25.255Z,88.51
2022-10-03T03:58:35.454Z,88.74
2022-10-03T04:03:58.422Z,89.75
2022-10-03T04:09:35.036Z,90.71
2022-10-03T04:14:52.221Z,91.23
2022-10-03T04:20:05.972Z,91.99
2022-10-03T04:25:18.200Z,91.61
2022-10-03T04:30:35.792Z,91.55
2022-10-03T04:35:42.198Z,91.88
2022-10-03T04:40:43.398Z,91.69
2022-10-03T04:45:41.241Z,91.42
2022-10-03T04:50:51.291Z,90.76
2022-10-03T04:55:48.884Z,90.09
2022-10-03T05:01:06.615Z,89.92
2022-10-03T05:06:06.216Z,89.53
2022-10-03T05:11:35.332Z,89.34
2022-10-03T05:16:38.347Z,88.98
2022-10-03T05:21:47.398Z,88.89
2022-10-03T05:27:23.982Z,88.59
2022-10-03T05:32:31.621Z,88.82
2022-10-03T05:37:35.677Z,88.67
2022-10-03T05:42:36.849Z,88.28
2022-10-03T05:47:45.804Z,88.20
2022-10-03T05:52:43.605Z,87.56
2022-10-03T05:57:35.215Z,87.45
2022-10-03T06:02:32.923Z,86.99
2022-10-03T06:07:52.604Z,87.50
2022-10-03T06:12:54.377Z,87.91
2022-10-03T06:18:04.526Z,87.83
2022-10-03T06:23:24.399Z,87.42
2022-10-03T06:28:28.509Z,86.63
2022-10-03T06:33:53.236Z,87.10
2022-10-03T06:39:22.725Z,86.98
2022-10-03T06:44:45.137Z,86.81
2022-10-03T06:50:11.374Z,86.15
2022-10-03T06:55:12.233Z,86.35
2022-10-03T07:00:09.794Z,86.27
2022-10-03T07:05:16.490Z,86.77
2022-10-03T07:10:30.089Z,86.15
2022-10-03T07:16:06.245Z,86.52
2022-10-03T07:21:01.429Z,86.13
2022-10-03T07:26:26.975Z,85.92
2022-10-03T07:31:21.724Z,85.55
2022-10-03T07:36:50.366Z,85.53
2022-10-03T07:42:04.109Z,87.38
2022-10-03T07:47:41.941Z,87.25
2022-10-03T07:53:08.045Z,86.51
2022-10-03T07:58:08.617Z,84.32
2022-10-03T08:03:24.935Z,80.97
2022-10-03T08:08:51.663Z,77.83
2022-10-03T08:14:01.919Z,77.63
2022-10-03T08:19:22.785Z,75.30
2022-10-03T08:24:22.904Z,76.10
2022-10-03T08:29:29.433Z,72.70
2022-10-03T08:34:33.702Z,72.77
2022-10-03T08:39:42.060Z,72.95
2022-10-03T08:44:36.389Z,72.16
2022-10-03T08:49:36.842Z,68.23
2022-10-03T08:54:51.535Z,67.08
2022-10-03T09:00:04.741Z,67.69
2022-10-03T09:05:15.292Z,67.98
2022-10-03T09:10:42.278Z,67.79
2022-10-03T09:16:10.600Z,67.47
2022-10-03T09:21:17.886Z,66.95
2022-10-03T09:26:24.614Z,67.55
2022-10-03T09:31:35.247Z,68.26
2022-10-03T09:36:44.872Z,67.53
2022-10-03T09:41:55.185Z,67.15
2022-10-03T09:47:12.608Z,67.34
2022-10-03T09:52:30.035Z,66.52
2022-10-03T09:57:42.207Z,67.33
2022-10-03T10:02:49.126Z,67.25
2022-10-03T10:08:06.033Z,66.83
2022-10-03T10:13:19.611Z,67.50
2022-10-03T10:18:17.265Z,68.07
2022-10-03T10:23:28.744Z,67.24
2022-10-03T10:28:58.625Z,63.86
2022-10-03T10:34:17.741Z,64.32
2022-10-03T10:39:36.589Z,63.06
2022-10-03T10:44:46.972Z,62.33
2022-10-03T10:50:00.286Z,61.37
2022-10-03T10:55:03.727Z,61.18
2022-10-03T11:00:10.712Z,61.08
2022-10-03T11:05:38.262Z,61.37
2022-10-03T11:10:52.495Z,60.81
2022-10-03T11:15:53.150Z,60.49
2022-10-03T11:21:04.488Z,59.34
2022-10-03T11:26:21.095Z,57.70
2022-10-03T11:31:34.422Z,57.71
2022-10-03T11:36:59.977Z,58.33
2022-10-03T11:42:02.489Z,57.96
2022-10-03T11:47:00.098Z,56.70
2022-10-03T11:52:06.786Z,56.21
2022-10-03T11:57:43.971Z,56.06
2022-10-03T12:03:03.429Z,56.58
2022-10-03T12:08:47.748Z,54.79
2022-10-03T12:14:11.751Z,56.02
2022-10-03T12:19:20.934Z,55.72
2022-10-03T12:24:42.901Z,54.20
2022-10-03T12:29:39.138Z,54.21
2022-10-03T12:34:40.179Z,54.61
2022-10-03T12:39:58.686Z,54.83
2022-10-03T12:45:02.286Z,54.29
2022-10-03T12:50:15.430Z,54.88
2022-10-03T12:55:38.497Z,55.11
2022-10-03T13:00:56.047Z,56.54
2022-10-03T13:06:02.877Z,55.81
2022-10-03T13:11:08.969Z,56.59
2022-10-03T13:16:08.846Z,57.47
2022-10-03T13:21:26.661Z,58.10
2022-10-03T13:26:47.051Z,59.08
2022-10-03T13:31:57.280Z,59.71
2022-10-03T13:37:05.329Z,59.61
2022-10-03T13:42:13.826Z,59.83
2022-10-03T13:47:43.541Z,60.23
2022-10-03T13:53:01.407Z,59.77
2022-10-03T13:58:13.143Z,59.20
2022-10-03T14:03:15.900Z,59.29
2022-10-03T14:08:17.446Z,60.13
2022-10-03T14:13:21.744Z,60.19
2022-10-03T14:18:44.975Z,59.94
2022-10-03T14:23:50.702Z,59.60
2022-10-03T14:29:05.634Z,60.26
2022-10-03T14:34:07.841Z,60.30
2022-10-03T14:39:38.158Z,60.44
2022-10-03T14:44:38.734Z,61.19
2022-10-03T14:54:45.274Z,61.75
2022-10-03T14:59:37.239Z,62.13
2022-10-03T15:04:35.607Z,61.89
2022-10-03T15:09:40.194Z,61.80
2022-10-03T15:14:36.271Z,61.90
2022-10-03T15:19:44.101Z,62.03
2022-10-03T15:24:36.113Z,62.65
2022-10-03T15:29:29.396Z,63.26
2022-10-03T15:34:30.566Z,63.29
2022-10-03T15:39:43.984Z,62.81
2022-10-03T15:44:50.342Z,63.13
2022-10-03T15:49:54.754Z,62.87
2022-10-03T15:55:11.047Z,64.01
2022-10-03T16:00:06.917Z,64.01
2022-10-03T16:04:58.874Z,64.06
2022-10-03T16:10:01.101Z,62.88
2022-10-03T16:15:17.127Z,63.06
2022-10-03T16:20:15.359Z,63.37
2022-10-03T16:25:25.687Z,63.21
2022-10-03T16:30:41.621Z,63.70
2022-10-03T16:35:37.748Z,64.20
2022-10-03T16:40:30.204Z,64.48
2022-10-03T16:45:27.023Z,65.12
2022-10-03T16:50:25.910Z,64.82
2022-10-03T16:55:28.561Z,65.55
2022-10-03T17:00:25.670Z,65.83
2022-10-03T17:05:19.125Z,66.09
2022-10-03T17:10:21.817Z,66.70
2022-10-03T17:15:22.381Z,67.28
2022-10-03T17:20:39.146Z,67.29
2022-10-03T17:25:38.079Z,67.94
2022-10-03T17:30:44.127Z,68.10
2022-10-03T17:35:35.761Z,68.54
2022-10-03T17:41:08.311Z,69.43
2022-10-03T17:46:12.560Z,70.51
2022-10-03T17:51:35.141Z,70.84
2022-10-03T17:56:32.835Z,71.85
2022-10-03T18:01:35.943Z,71.58
2022-10-03T18:06:34.467Z,72.17
2022-10-03T18:11:29.146Z,72.56
2022-10-03T18:16:33.426Z,73.14
2022-10-03T18:21:35.993Z,73.43
2022-10-03T18:26:33.616Z,74.08
2022-10-03T18:31:27.315Z,73.94
2022-10-03T18:36:26.195Z,74.06
2022-10-03T18:41:19.277Z,74.75
2022-10-03T18:46:19.627Z,75.01
2022-10-03T18:51:17.434Z,75.37
2022-10-03T18:56:27.406Z,75.66
2022-10-03T19:01:38.207Z,76.06
2022-10-03T19:06:36.440Z,76.54
2022-10-03T19:11:43.408Z,77.02
2022-10-03T19:16:53.644Z,77.40
2022-10-03T19:21:47.896Z,78.39
2022-10-03T19:26:49.407Z,77.95
2022-10-03T19:31:47.069Z,78.26
2022-10-03T19:36:41.039Z,79.34
2022-10-03T19:41:43.671Z,79.32
2022-10-03T19:46:50.661Z,79.91
2022-10-03T19:51:42.434Z,80.20
2022-10-03T19:56:35.993Z,80.51
2022-10-03T20:01:27.855Z,81.14
2022-10-03T20:06:23.750Z,81.61
2022-10-03T20:11:36.816Z,81.95
2022-10-03T20:16:35.863Z,81.94
2022-10-03T20:21:30.141Z,82.42
2022-10-03T20:26:24.555Z,82.75
2022-10-03T20:31:25.412Z,82.71
2022-10-03T20:36:28.965Z,82.92
2022-10-03T20:41:35.730Z,83.43
2022-10-03T20:46:35.953Z,83.51
2022-10-03T20:51:54.811Z,83.28
2022-10-03T20:56:58.557Z,83.42
2022-10-03T21:02:00.316Z,83.45
2022-10-03T21:07:04.158Z,83.81
2022-10-03T21:11:57.261Z,84.17
2022-10-03T21:16:52.076Z,84.41
2022-10-03T21:21:52.721Z,84.04
2022-10-03T21:26:48.265Z,84.44
2022-10-03T21:31:55.023Z,84.46
2022-10-03T21:36:46.720Z,85.01
2022-10-03T21:42:05.615Z,85.00
2022-10-03T21:47:32.683Z,85.34
2022-10-03T21:52:42.454Z,85.81
2022-10-03T21:57:52.326Z,85.85
2022-10-03T22:02:52.744Z,86.29
2022-10-03T22:07:45.739Z,86.22
2022-10-03T22:12:44.089Z,86.70
2022-10-03T22:17:52.972Z,87.01
2022-10-03T22:23:10.682Z,87.19
2022-10-03T22:28:20.727Z,87.30
2022-10-03T22:33:38.240Z,87.52
2022-10-03T22:38:33.793Z,88.34
2022-10-03T22:43:27.266Z,88.43
2022-10-03T22:48:28.360Z,88.72
2022-10-03T22:53:24.350Z,88.82
2022-10-03T22:58:17.005Z,88.82
2022-10-03T23:03:18.522Z,89.18
2022-10-03T23:08:10.129Z,89.35
2022-10-03T23:13:05.409Z,89.64
2022-10-03T23:18:09.756Z,89.13
2022-10-03T23:23:11.301Z,89.32
2022-10-03T23:28:29.905Z,89.50
2022-10-03T23:33:41.840Z,89.76
2022-10-03T23:38:33.559Z,89.65
2022-10-03T23:43:33.237Z,90.97
2022-10-03T23:48:27.530Z,92.97
2022-10-03T23:53:41.257Z,94.10
2022-10-03T23:58:36.738Z,94.63
